Time;durP1;ratioP1;P1;durP2;ratioP2;P2;SDS_P1;SDS_P2;PMS_P1;PMS_P2;Temp;Humidity;BMP_temperature;BMP_pressure;BME280_temperature;BME280_humidity;BME280_pressure;Samples;Min_cycle;Max_cycle;Signal;HPM_P1;HPM_P2
2021/10/04 19:48:03;;;;;;;2.78;1.10;;;14.00;99.90;;;10.42;84.05;101151.81;2550596;30;136372;-39
2021/10/04 19:50:31;;;;;;;1.70;0.90;;;12.10;99.90;;;10.24;84.15;101157.78;2570309;30;137066;-40
2021/10/04 19:53:00;;;;;;;3.55;1.00;;;11.90;99.90;;;10.09;84.28;101150.59;2566506;30;137139;-40
2021/10/04 19:55:28;;;;;;;2.13;0.90;;;11.70;99.90;;;9.98;84.76;101146.53;2568788;30;136989;-40
2021/10/04 19:57:55;;;;;;;4.80;1.20;;;11.60;99.90;;;9.89;84.77;101148.59;2568315;30;139292;-40
2021/10/04 20:00:23;;;;;;;2.67;1.17;;;11.50;99.90;;;9.81;84.94;101142.44;2568771;30;136816;-40
2021/10/04 20:02:52;;;;;;;3.20;1.27;;;11.40;99.90;;;9.73;85.01;101149.75;2568111;30;136814;-40
2021/10/04 20:05:20;;;;;;;3.05;1.20;;;11.30;99.90;;;9.66;85.18;101148.00;2569553;30;137081;-39
2021/10/04 20:07:47;;;;;;;3.35;1.30;;;11.30;99.90;;;9.59;85.66;101142.50;2570713;30;137639;-40
2021/10/04 20:10:15;;;;;;;3.50;1.38;;;11.20;99.90;;;9.55;85.92;101154.84;2566498;30;136842;-40
2021/10/04 20:12:43;;;;;;;3.88;1.45;;;11.10;99.90;;;9.53;86.36;101162.34;2569934;30;138165;-39
2021/10/04 20:15:11;;;;;;;3.80;1.80;;;11.10;99.90;;;9.45;86.62;101149.72;2569893;30;137789;-40
2021/10/04 20:17:38;;;;;;;3.25;1.65;;;11.00;99.90;;;9.36;86.19;101140.84;2571303;30;137924;-40
2021/10/04 20:20:07;;;;;;;4.97;1.90;;;11.00;99.90;;;9.37;85.95;101149.88;2568341;30;137160;-39
2021/10/04 20:22:38;;;;;;;5.45;1.95;;;10.90;99.90;;;9.34;85.99;101146.50;2569204;30;137264;-40
2021/10/04 20:25:10;;;;;;;6.55;2.03;;;10.90;99.90;;;9.37;86.05;101145.25;2568329;30;137364;-39
2021/10/04 20:27:37;;;;;;;4.85;2.00;;;10.90;99.90;;;9.39;86.21;101139.63;2568221;30;136633;-40
2021/10/04 20:30:06;;;;;;;6.90;2.17;;;10.90;99.90;;;9.40;85.82;101138.59;2569435;30;136778;-40
2021/10/04 20:32:34;;;;;;;4.03;1.80;;;10.90;99.90;;;9.43;85.70;101138.19;2569712;30;138156;-40
2021/10/04 20:35:01;;;;;;;;;;;11.00;99.90;;;9.43;85.87;101143.63;2569401;30;138332;-40
2021/10/04 20:37:30;;;;;;;5.32;2.03;;;11.00;99.90;;;9.41;86.36;101141.09;2566780;30;138314;-40
2021/10/04 20:39:58;;;;;;;3.75;1.70;;;11.00;99.90;;;9.42;86.38;101144.66;2567915;30;138102;-40
2021/10/04 20:42:26;;;;;;;4.32;1.85;;;11.00;99.90;;;9.32;86.67;101131.41;2568610;30;138951;-40
2021/10/04 20:44:53;;;;;;;3.72;1.67;;;11.00;99.90;;;9.37;86.77;101147.16;2567715;30;137087;-40
2021/10/04 20:47:21;;;;;;;;;;;10.90;99.90;;;9.33;87.00;101135.78;2569868;30;137207;-40
2021/10/04 20:49:48;;;;;;;6.03;1.77;;;10.90;99.90;;;9.31;86.95;101136.00;2567811;30;136918;-40
2021/10/04 20:52:18;;;;;;;3.78;1.75;;;10.90;99.90;;;9.26;87.09;101132.19;2570220;30;138291;-39
2021/10/04 20:54:46;;;;;;;4.22;1.83;;;10.80;99.90;;;9.22;87.40;101137.16;2570204;30;138332;-40
2021/10/04 20:57:14;;;;;;;4.10;1.77;;;10.80;99.90;;;9.15;88.06;101130.84;2567497;30;137544;-40
2021/10/04 20:59:42;;;;;;;4.45;1.98;;;10.80;99.90;;;9.09;88.13;101126.19;2569402;30;138260;-40
2021/10/04 21:02:09;;;;;;;4.82;2.08;;;10.70;99.90;;;9.01;88.20;101127.16;2568372;30;138539;-40
2021/10/04 21:04:37;;;;;;;5.22;2.10;;;10.60;99.90;;;9.02;88.31;101126.09;2567109;30;137991;-40
2021/10/04 21:07:06;;;;;;;6.82;2.08;;;10.60;99.90;;;8.99;88.38;101121.88;2570897;30;138361;-40
2021/10/04 21:09:35;;;;;;;6.15;2.35;;;10.60;99.90;;;8.98;88.61;101125.63;2570490;30;137728;-39
2021/10/04 21:12:04;;;;;;;4.30;1.80;;;10.60;99.90;;;8.94;89.18;101121.63;2568862;30;137913;-39
2021/10/04 21:14:36;;;;;;;4.20;1.98;;;10.50;99.90;;;8.89;89.37;101127.69;2567062;30;138557;-39
2021/10/04 21:17:07;;;;;;;6.47;2.00;;;10.50;99.90;;;8.91;90.30;101135.63;2566941;30;139352;-39
2021/10/04 21:19:37;;;;;;;4.45;2.30;;;10.50;99.90;;;8.92;90.46;101132.72;2568217;30;137508;-39
2021/10/04 21:22:08;;;;;;;5.15;2.33;;;10.50;99.90;;;8.95;90.80;101134.19;2569107;30;138201;-40
2021/10/04 21:24:37;;;;;;;6.03;2.20;;;10.50;99.90;;;8.97;91.04;101134.03;2566701;30;136763;-39
2021/10/04 21:27:05;;;;;;;5.10;1.98;;;10.50;99.90;;;9.02;90.94;101129.69;2565361;31;137718;-40
2021/10/04 21:29:33;;;;;;;4.63;1.88;;;10.60;99.90;;;9.07;91.01;101129.94;2569677;30;136964;-40
2021/10/04 21:32:01;;;;;;;3.67;1.98;;;10.60;99.90;;;9.09;91.33;101123.47;2568810;30;138196;-40
2021/10/04 21:34:28;;;;;;;4.50;2.28;;;10.60;99.90;;;9.10;91.30;101114.25;2569633;30;136713;-40
2021/10/04 21:36:56;;;;;;;5.75;2.05;;;10.70;99.90;;;9.16;91.36;101122.47;2570538;30;137397;-39
2021/10/04 21:39:24;;;;;;;3.95;1.98;;;10.70;99.90;;;9.17;91.42;101123.31;2566935;30;137521;-39
2021/10/04 21:41:51;;;;;;;5.65;2.17;;;10.70;99.90;;;9.18;91.21;101127.72;2569358;30;136906;-40
2021/10/04 21:44:22;;;;;;;4.70;2.17;;;10.70;99.90;;;9.25;91.33;101120.44;2567564;30;137250;-40
2021/10/04 21:46:52;;;;;;;3.65;2.00;;;10.80;99.90;;;9.28;91.46;101124.66;2570640;30;138994;-40
2021/10/04 21:49:20;;;;;;;4.07;2.00;;;10.80;99.90;;;9.30;91.40;101118.00;2568532;30;137753;-40
2021/10/04 21:51:50;;;;;;;6.45;2.22;;;10.80;99.90;;;9.30;91.46;101112.53;2569857;30;138108;-40
2021/10/04 21:54:18;;;;;;;7.38;2.03;;;10.80;99.90;;;9.30;91.15;101109.81;2568698;30;137905;-38
2021/10/04 21:56:45;;;;;;;;;;;10.80;99.90;;;9.27;91.31;101109.38;2565817;30;137758;-39
2021/10/04 21:59:18;;;;;;;4.97;1.90;;;10.80;99.90;;;9.30;91.15;101104.38;2569803;30;137838;-40
2021/10/04 22:07:16;;;;;;;5.43;2.03;;;10.80;99.90;;;9.30;91.21;101088.03;2569396;30;139146;-40
2021/10/04 22:12:31;;;;;;;4.00;2.05;;;10.90;99.90;;;9.31;91.64;101092.44;2568945;30;137459;-40
2021/10/04 22:15:00;;;;;;;5.22;1.95;;;10.90;99.90;;;9.28;91.55;101090.13;2569702;30;137607;-40
2021/10/04 22:17:27;;;;;;;5.00;2.08;;;10.80;99.90;;;9.28;91.95;101090.13;2569052;30;137585;-40
2021/10/04 22:19:55;;;;;;;5.47;2.00;;;10.80;99.90;;;9.28;91.85;101084.69;2569420;30;137666;-40
2021/10/04 22:22:22;;;;;;;5.80;2.17;;;10.80;99.90;;;9.28;91.75;101092.00;2571040;30;138447;-40
2021/10/04 22:24:50;;;;;;;4.70;2.08;;;10.80;99.90;;;9.35;91.92;101087.44;2568179;30;137957;-39
2021/10/04 22:27:17;;;;;;;4.10;2.10;;;10.90;99.90;;;9.38;91.87;101075.31;2569131;30;137441;-40
2021/10/04 22:29:45;;;;;;;4.28;2.05;;;10.90;99.90;;;9.41;91.92;101080.34;2570737;30;136851;-40
2021/10/04 22:32:13;;;;;;;3.80;2.05;;;10.90;99.90;;;9.39;91.68;101077.00;2568363;30;138248;-39
2021/10/04 22:34:40;;;;;;;4.72;1.95;;;10.90;99.90;;;9.39;91.54;101077.00;2568967;30;136791;-39
2021/10/04 22:37:08;;;;;;;4.63;1.95;;;10.90;99.90;;;9.38;91.59;101069.88;2569802;30;137827;-40
2021/10/04 22:39:35;;;;;;;4.82;2.33;;;10.90;99.90;;;9.38;91.56;101064.41;2570876;30;137632;-40
2021/10/04 22:42:03;;;;;;;4.70;1.90;;;10.90;99.90;;;9.43;91.48;101067.38;2568655;30;137390;-40
2021/10/04 22:44:31;;;;;;;5.35;1.90;;;10.90;99.90;;;9.49;90.64;101067.44;2569805;30;137127;-40
2021/10/04 22:46:58;;;;;;;5.05;2.10;;;11.00;99.90;;;9.48;91.20;101052.13;2570890;30;138379;-39
2021/10/04 22:49:26;;;;;;;3.47;1.80;;;11.00;99.90;;;9.45;91.18;101046.22;2569670;30;137864;-40
2021/10/04 22:51:55;;;;;;;3.25;1.52;;;11.00;99.90;;;9.42;91.51;101046.63;2570947;30;138370;-39
2021/10/04 22:54:22;;;;;;;4.15;2.00;;;11.00;99.90;;;9.45;91.25;101054.41;2570442;30;137710;-39
2021/10/04 22:56:52;;;;;;;4.60;2.08;;;11.00;99.90;;;9.46;91.17;101045.19;2572714;30;138989;-40
2021/10/04 22:59:19;;;;;;;3.95;1.80;;;11.00;99.90;;;9.47;91.45;101053.19;2569081;30;136716;-39
2021/10/04 23:01:47;;;;;;;4.57;2.17;;;11.00;99.90;;;9.43;91.33;101046.44;2570729;30;139121;-40
2021/10/04 23:04:15;;;;;;;;;;;11.00;99.90;;;9.42;91.83;101044.78;2572096;30;137476;-40
2021/10/04 23:06:42;;;;;;;3.67;1.60;;;11.00;99.90;;;9.43;91.37;101040.16;2568605;30;136732;-40
2021/10/04 23:09:13;;;;;;;4.57;1.90;;;10.90;99.90;;;9.43;91.34;101037.41;2569641;30;136965;-40
2021/10/04 23:11:41;;;;;;;4.85;1.83;;;11.00;99.90;;;9.38;91.70;101026.28;2567802;30;138786;-40
2021/10/04 23:14:08;;;;;;;3.42;1.83;;;10.90;99.90;;;9.46;91.17;101026.13;2569854;30;136750;-39
2021/10/04 23:16:37;;;;;;;3.97;1.85;;;10.90;99.90;;;9.46;91.01;101020.69;2569733;30;137302;-40
2021/10/04 23:19:05;;;;;;;4.72;2.25;;;11.00;99.90;;;9.40;91.32;101016.03;2570231;30;137615;-40
2021/10/04 23:21:32;;;;;;;4.75;1.60;;;10.90;99.90;;;9.44;91.21;101020.91;2569468;30;138390;-39
2021/10/04 23:24:00;;;;;;;3.50;2.00;;;10.90;99.90;;;9.42;90.85;101017.53;2569842;30;136790;-39
2021/10/04 23:26:28;;;;;;;6.40;1.85;;;10.90;99.90;;;9.42;90.85;101005.78;2568502;30;139366;-40
2021/10/04 23:28:55;;;;;;;3.13;1.63;;;10.90;99.90;;;9.42;91.08;101009.38;2570836;30;138186;-40
2021/10/04 23:31:23;;;;;;;2.97;1.48;;;10.90;99.90;;;9.37;91.18;101011.00;2569278;30;137961;-39
2021/10/04 23:33:50;;;;;;;3.92;2.00;;;10.90;99.90;;;9.35;91.24;101003.88;2570032;30;138458;-40
2021/10/04 23:36:18;;;;;;;5.07;2.25;;;10.90;99.90;;;9.29;91.35;101004.69;2569021;30;138177;-40
2021/10/04 23:38:45;;;;;;;5.28;1.92;;;10.90;99.90;;;9.24;91.60;100981.81;2567091;30;138337;-40
2021/10/04 23:41:14;;;;;;;4.78;1.73;;;10.80;99.90;;;9.28;91.83;100983.94;2570396;30;138215;-39
2021/10/04 23:43:42;;;;;;;5.70;2.17;;;10.80;99.90;;;9.33;91.86;100983.31;2568232;30;137283;-40
2021/10/04 23:46:09;;;;;;;;;;;10.80;99.90;;;9.28;91.89;100985.81;2571309;30;137464;-41
2021/10/04 23:48:37;;;;;;;2.97;1.80;;;10.80;99.90;;;9.25;91.35;100984.31;2568893;30;137113;-39
2021/10/04 23:51:04;;;;;;;3.30;1.95;;;10.80;99.90;;;9.24;91.70;100988.06;2568060;30;137763;-40
2021/10/04 23:53:32;;;;;;;2.63;1.60;;;10.80;99.90;;;9.22;91.48;100984.72;2571135;30;137610;-39
2021/10/04 23:55:59;;;;;;;3.83;1.77;;;10.80;99.90;;;9.18;91.93;100994.31;2569018;30;138421;-40
2021/10/04 23:58:27;;;;;;;4.63;1.90;;;10.70;99.90;;;9.12;nan;100990.50;2569311;30;137070;-40
